sensor_id;sensor_type;location;lat;lon;timestamp;P1;durP1;ratioP1;P2;durP2;ratioP2
8952;SDS011;4511;50.890;8.054;2023-04-24T00:01:28;1.67;;;1.60;;
8952;SDS011;4511;50.890;8.054;2023-04-24T00:03:56;1.70;;;1.60;;
8952;SDS011;4511;50.890;8.054;2023-04-24T00:06:24;3.70;;;1.60;;
8952;SDS011;4511;50.890;8.054;2023-04-24T00:08:58;1.70;;;1.60;;
8952;SDS011;4511;50.890;8.054;2023-04-24T00:11:26;2.10;;;2.00;;
8952;SDS011;4511;50.890;8.054;2023-04-24T00:13:53;1.63;;;1.60;;
8952;SDS011;4511;50.890;8.054;2023-04-24T00:16:20;2.77;;;1.60;;
8952;SDS011;4511;50.890;8.054;2023-04-24T00:18:46;1.50;;;1.50;;
8952;SDS011;4511;50.890;8.054;2023-04-24T00:21:13;2.83;;;1.73;;
8952;SDS011;4511;50.890;8.054;2023-04-24T00:23:41;1.60;;;1.57;;
8952;SDS011;4511;50.890;8.054;2023-04-24T00:26:08;1.80;;;1.70;;
8952;SDS011;4511;50.890;8.054;2023-04-24T00:28:36;1.90;;;1.80;;
8952;SDS011;4511;50.890;8.054;2023-04-24T00:31:03;3.93;;;1.90;;
8952;SDS011;4511;50.890;8.054;2023-04-24T00:33:30;1.60;;;1.50;;
8952;SDS011;4511;50.890;8.054;2023-04-24T00:35:57;1.70;;;1.60;;
8952;SDS011;4511;50.890;8.054;2023-04-24T00:38:24;1.70;;;1.60;;
8952;SDS011;4511;50.890;8.054;2023-04-24T00:40:50;1.90;;;1.80;;
8952;SDS011;4511;50.890;8.054;2023-04-24T00:43:19;1.70;;;1.60;;
8952;SDS011;4511;50.890;8.054;2023-04-24T00:45:47;1.80;;;1.70;;
8952;SDS011;4511;50.890;8.054;2023-04-24T00:48:14;1.53;;;1.53;;
8952;SDS011;4511;50.890;8.054;2023-04-24T00:50:41;1.80;;;1.70;;
8952;SDS011;4511;50.890;8.054;2023-04-24T00:53:08;2.10;;;1.60;;
8952;SDS011;4511;50.890;8.054;2023-04-24T00:55:35;1.73;;;1.63;;
8952;SDS011;4511;50.890;8.054;2023-04-24T00:58:03;1.80;;;1.70;;
8952;SDS011;4511;50.890;8.054;2023-04-24T01:00:30;1.70;;;1.60;;
8952;SDS011;4511;50.890;8.054;2023-04-24T01:02:59;1.80;;;1.70;;
8952;SDS011;4511;50.890;8.054;2023-04-24T01:05:27;2.43;;;1.50;;
8952;SDS011;4511;50.890;8.054;2023-04-24T01:07:54;4.83;;;1.60;;
8952;SDS011;4511;50.890;8.054;2023-04-24T01:10:22;1.80;;;1.70;;
8952;SDS011;4511;50.890;8.054;2023-04-24T01:12:51;1.93;;;1.83;;
8952;SDS011;4511;50.890;8.054;2023-04-24T01:15:18;1.57;;;1.57;;
8952;SDS011;4511;50.890;8.054;2023-04-24T01:17:45;1.83;;;1.73;;
8952;SDS011;4511;50.890;8.054;2023-04-24T01:20:13;3.40;;;1.70;;
8952;SDS011;4511;50.890;8.054;2023-04-24T01:22:42;1.90;;;1.80;;
8952;SDS011;4511;50.890;8.054;2023-04-24T01:25:09;1.87;;;1.77;;
8952;SDS011;4511;50.890;8.054;2023-04-24T01:27:35;2.23;;;1.77;;
8952;SDS011;4511;50.890;8.054;2023-04-24T01:30:02;1.80;;;1.70;;
8952;SDS011;4511;50.890;8.054;2023-04-24T01:32:30;1.67;;;1.67;;
8952;SDS011;4511;50.890;8.054;2023-04-24T01:34:59;2.53;;;1.83;;
8952;SDS011;4511;50.890;8.054;2023-04-24T01:37:26;1.90;;;1.80;;
8952;SDS011;4511;50.890;8.054;2023-04-24T01:39:54;1.70;;;1.60;;
8952;SDS011;4511;50.890;8.054;2023-04-24T01:42:21;1.90;;;1.80;;
8952;SDS011;4511;50.890;8.054;2023-04-24T01:44:48;1.80;;;1.70;;
8952;SDS011;4511;50.890;8.054;2023-04-24T01:47:16;3.37;;;1.80;;
8952;SDS011;4511;50.890;8.054;2023-04-24T01:49:43;1.80;;;1.70;;
8952;SDS011;4511;50.890;8.054;2023-04-24T01:52:11;2.27;;;1.80;;
8952;SDS011;4511;50.890;8.054;2023-04-24T01:54:38;1.90;;;1.80;;
8952;SDS011;4511;50.890;8.054;2023-04-24T01:57:06;1.70;;;1.60;;
8952;SDS011;4511;50.890;8.054;2023-04-24T01:59:34;1.80;;;1.70;;
8952;SDS011;4511;50.890;8.054;2023-04-24T02:02:01;1.80;;;1.70;;
8952;SDS011;4511;50.890;8.054;2023-04-24T02:04:28;1.77;;;1.73;;
8952;SDS011;4511;50.890;8.054;2023-04-24T02:06:55;1.80;;;1.70;;
8952;SDS011;4511;50.890;8.054;2023-04-24T02:09:22;2.70;;;1.70;;
8952;SDS011;4511;50.890;8.054;2023-04-24T02:11:48;1.90;;;1.80;;
8952;SDS011;4511;50.890;8.054;2023-04-24T02:14:17;1.90;;;1.70;;
8952;SDS011;4511;50.890;8.054;2023-04-24T02:16:43;3.93;;;1.80;;
8952;SDS011;4511;50.890;8.054;2023-04-24T02:19:10;1.90;;;1.80;;
8952;SDS011;4511;50.890;8.054;2023-04-24T02:21:37;1.90;;;1.80;;
8952;SDS011;4511;50.890;8.054;2023-04-24T02:24:04;1.97;;;1.87;;
8952;SDS011;4511;50.890;8.054;2023-04-24T02:26:31;2.50;;;2.00;;
8952;SDS011;4511;50.890;8.054;2023-04-24T02:28:58;2.10;;;2.00;;
8952;SDS011;4511;50.890;8.054;2023-04-24T02:31:26;2.00;;;1.90;;
8952;SDS011;4511;50.890;8.054;2023-04-24T02:33:53;3.93;;;1.70;;
8952;SDS011;4511;50.890;8.054;2023-04-24T02:36:19;1.93;;;1.83;;
8952;SDS011;4511;50.890;8.054;2023-04-24T02:38:46;2.10;;;2.00;;
8952;SDS011;4511;50.890;8.054;2023-04-24T02:41:13;2.10;;;2.00;;
8952;SDS011;4511;50.890;8.054;2023-04-24T02:43:40;2.10;;;2.00;;
8952;SDS011;4511;50.890;8.054;2023-04-24T02:46:06;2.10;;;2.00;;
8952;SDS011;4511;50.890;8.054;2023-04-24T02:48:34;2.10;;;2.00;;
8952;SDS011;4511;50.890;8.054;2023-04-24T02:51:01;2.57;;;2.37;;
8952;SDS011;4511;50.890;8.054;2023-04-24T02:53:28;2.40;;;2.30;;
8952;SDS011;4511;50.890;8.054;2023-04-24T02:55:55;3.70;;;2.67;;
8952;SDS011;4511;50.890;8.054;2023-04-24T02:58:22;4.07;;;2.93;;
8952;SDS011;4511;50.890;8.054;2023-04-24T03:00:52;4.30;;;2.90;;
8952;SDS011;4511;50.890;8.054;2023-04-24T03:03:20;3.73;;;3.10;;
8952;SDS011;4511;50.890;8.054;2023-04-24T03:05:48;2.37;;;2.17;;
8952;SDS011;4511;50.890;8.054;2023-04-24T03:08:15;2.30;;;2.20;;
8952;SDS011;4511;50.890;8.054;2023-04-24T03:10:42;2.30;;;2.20;;
8952;SDS011;4511;50.890;8.054;2023-04-24T03:13:09;2.57;;;2.30;;
8952;SDS011;4511;50.890;8.054;2023-04-24T03:15:36;2.77;;;2.57;;
8952;SDS011;4511;50.890;8.054;2023-04-24T03:18:02;4.23;;;2.90;;
8952;SDS011;4511;50.890;8.054;2023-04-24T03:20:29;4.07;;;3.13;;
8952;SDS011;4511;50.890;8.054;2023-04-24T03:22:57;3.00;;;2.80;;
8952;SDS011;4511;50.890;8.054;2023-04-24T03:25:24;3.00;;;2.80;;
8952;SDS011;4511;50.890;8.054;2023-04-24T03:27:51;3.50;;;3.30;;
8952;SDS011;4511;50.890;8.054;2023-04-24T03:30:19;3.27;;;3.07;;
8952;SDS011;4511;50.890;8.054;2023-04-24T03:32:46;3.60;;;3.30;;
8952;SDS011;4511;50.890;8.054;2023-04-24T03:35:13;4.47;;;3.60;;
8952;SDS011;4511;50.890;8.054;2023-04-24T03:37:40;4.43;;;4.00;;
8952;SDS011;4511;50.890;8.054;2023-04-24T03:40:08;4.83;;;3.90;;
8952;SDS011;4511;50.890;8.054;2023-04-24T03:42:35;4.37;;;3.97;;
8952;SDS011;4511;50.890;8.054;2023-04-24T03:45:02;4.17;;;3.83;;
8952;SDS011;4511;50.890;8.054;2023-04-24T03:47:29;4.80;;;4.40;;
8952;SDS011;4511;50.890;8.054;2023-04-24T03:49:56;5.07;;;4.53;;
8952;SDS011;4511;50.890;8.054;2023-04-24T03:52:23;7.87;;;7.27;;
8952;SDS011;4511;50.890;8.054;2023-04-24T03:54:50;5.17;;;4.67;;
8952;SDS011;4511;50.890;8.054;2023-04-24T03:57:18;4.80;;;4.50;;
8952;SDS011;4511;50.890;8.054;2023-04-24T03:59:44;5.23;;;4.83;;
8952;SDS011;4511;50.890;8.054;2023-04-24T04:02:11;5.10;;;4.70;;
8952;SDS011;4511;50.890;8.054;2023-04-24T04:04:38;6.00;;;5.40;;
8952;SDS011;4511;50.890;8.054;2023-04-24T04:07:05;5.90;;;5.40;;
8952;SDS011;4511;50.890;8.054;2023-04-24T04:09:32;6.40;;;5.80;;
8952;SDS011;4511;50.890;8.054;2023-04-24T04:11:59;5.93;;;5.43;;
8952;SDS011;4511;50.890;8.054;2023-04-24T04:14:27;6.13;;;5.63;;
8952;SDS011;4511;50.890;8.054;2023-04-24T04:16:54;5.80;;;5.30;;
8952;SDS011;4511;50.890;8.054;2023-04-24T04:19:21;6.10;;;5.60;;
8952;SDS011;4511;50.890;8.054;2023-04-24T04:21:48;5.97;;;5.47;;
8952;SDS011;4511;50.890;8.054;2023-04-24T04:24:18;6.37;;;5.80;;
8952;SDS011;4511;50.890;8.054;2023-04-24T04:26:45;7.00;;;6.30;;
8952;SDS011;4511;50.890;8.054;2023-04-24T04:29:12;6.63;;;6.00;;
8952;SDS011;4511;50.890;8.054;2023-04-24T04:31:41;6.63;;;6.03;;
8952;SDS011;4511;50.890;8.054;2023-04-24T04:34:08;6.43;;;5.83;;
8952;SDS011;4511;50.890;8.054;2023-04-24T04:36:35;6.63;;;6.03;;
8952;SDS011;4511;50.890;8.054;2023-04-24T04:39:01;7.07;;;6.37;;
8952;SDS011;4511;50.890;8.054;2023-04-24T04:41:28;6.47;;;5.87;;
8952;SDS011;4511;50.890;8.054;2023-04-24T04:43:55;6.50;;;5.90;;
8952;SDS011;4511;50.890;8.054;2023-04-24T04:46:23;6.33;;;5.73;;
8952;SDS011;4511;50.890;8.054;2023-04-24T04:48:52;6.33;;;5.73;;
8952;SDS011;4511;50.890;8.054;2023-04-24T04:51:19;6.43;;;5.83;;
8952;SDS011;4511;50.890;8.054;2023-04-24T04:53:46;6.90;;;5.83;;
8952;SDS011;4511;50.890;8.054;2023-04-24T04:56:12;6.20;;;5.60;;
8952;SDS011;4511;50.890;8.054;2023-04-24T04:58:39;6.40;;;5.80;;
8952;SDS011;4511;50.890;8.054;2023-04-24T05:01:06;7.87;;;5.63;;
8952;SDS011;4511;50.890;8.054;2023-04-24T05:03:33;5.73;;;5.23;;
8952;SDS011;4511;50.890;8.054;2023-04-24T05:06:01;5.50;;;5.10;;
8952;SDS011;4511;50.890;8.054;2023-04-24T05:08:28;5.50;;;5.00;;
8952;SDS011;4511;50.890;8.054;2023-04-24T05:10:54;6.60;;;5.00;;
8952;SDS011;4511;50.890;8.054;2023-04-24T05:13:21;5.27;;;4.77;;
8952;SDS011;4511;50.890;8.054;2023-04-24T05:15:48;5.43;;;5.03;;
8952;SDS011;4511;50.890;8.054;2023-04-24T05:18:15;5.47;;;4.90;;
8952;SDS011;4511;50.890;8.054;2023-04-24T05:20:41;6.87;;;5.43;;
8952;SDS011;4511;50.890;8.054;2023-04-24T05:23:10;6.03;;;5.37;;
8952;SDS011;4511;50.890;8.054;2023-04-24T05:25:37;6.23;;;5.70;;
8952;SDS011;4511;50.890;8.054;2023-04-24T05:28:05;6.10;;;5.50;;
8952;SDS011;4511;50.890;8.054;2023-04-24T05:30:32;6.63;;;6.07;;
8952;SDS011;4511;50.890;8.054;2023-04-24T05:32:58;6.20;;;5.67;;
8952;SDS011;4511;50.890;8.054;2023-04-24T05:35:25;6.13;;;5.60;;
8952;SDS011;4511;50.890;8.054;2023-04-24T05:37:52;6.13;;;5.63;;
8952;SDS011;4511;50.890;8.054;2023-04-24T05:40:20;6.73;;;6.03;;
8952;SDS011;4511;50.890;8.054;2023-04-24T05:42:47;6.43;;;5.83;;
8952;SDS011;4511;50.890;8.054;2023-04-24T05:45:14;6.67;;;6.00;;
8952;SDS011;4511;50.890;8.054;2023-04-24T05:47:41;6.63;;;5.40;;
8952;SDS011;4511;50.890;8.054;2023-04-24T05:50:09;5.70;;;5.30;;
8952;SDS011;4511;50.890;8.054;2023-04-24T05:52:36;6.57;;;5.73;;
8952;SDS011;4511;50.890;8.054;2023-04-24T05:55:03;6.13;;;5.63;;
8952;SDS011;4511;50.890;8.054;2023-04-24T05:57:31;7.00;;;5.50;;
8952;SDS011;4511;50.890;8.054;2023-04-24T05:59:58;6.10;;;5.50;;
8952;SDS011;4511;50.890;8.054;2023-04-24T06:02:25;6.20;;;5.60;;
8952;SDS011;4511;50.890;8.054;2023-04-24T06:04:52;5.50;;;5.10;;
8952;SDS011;4511;50.890;8.054;2023-04-24T06:07:19;6.67;;;5.90;;
8952;SDS011;4511;50.890;8.054;2023-04-24T06:09:46;5.93;;;5.33;;
8952;SDS011;4511;50.890;8.054;2023-04-24T06:12:13;8.07;;;5.20;;
8952;SDS011;4511;50.890;8.054;2023-04-24T06:14:41;7.33;;;6.20;;
8952;SDS011;4511;50.890;8.054;2023-04-24T06:17:07;6.03;;;5.33;;
8952;SDS011;4511;50.890;8.054;2023-04-24T06:19:34;6.40;;;5.87;;
8952;SDS011;4511;50.890;8.054;2023-04-24T06:22:01;6.20;;;5.60;;
8952;SDS011;4511;50.890;8.054;2023-04-24T06:24:28;5.90;;;5.40;;
8952;SDS011;4511;50.890;8.054;2023-04-24T06:26:55;6.50;;;5.67;;
8952;SDS011;4511;50.890;8.054;2023-04-24T06:29:23;7.23;;;5.60;;
8952;SDS011;4511;50.890;8.054;2023-04-24T06:31:52;7.60;;;5.77;;
8952;SDS011;4511;50.890;8.054;2023-04-24T06:34:18;5.93;;;5.43;;
8952;SDS011;4511;50.890;8.054;2023-04-24T06:36:46;6.27;;;5.67;;
8952;SDS011;4511;50.890;8.054;2023-04-24T06:39:13;6.40;;;5.80;;
8952;SDS011;4511;50.890;8.054;2023-04-24T06:41:39;9.30;;;5.87;;
8952;SDS011;4511;50.890;8.054;2023-04-24T06:44:06;6.67;;;6.07;;
8952;SDS011;4511;50.890;8.054;2023-04-24T06:46:33;6.70;;;6.03;;
8952;SDS011;4511;50.890;8.054;2023-04-24T06:49:01;6.33;;;5.77;;
8952;SDS011;4511;50.890;8.054;2023-04-24T06:51:28;7.03;;;6.23;;
8952;SDS011;4511;50.890;8.054;2023-04-24T06:53:55;8.70;;;6.23;;
8952;SDS011;4511;50.890;8.054;2023-04-24T06:56:22;6.77;;;6.13;;
8952;SDS011;4511;50.890;8.054;2023-04-24T06:58:49;6.90;;;6.33;;
8952;SDS011;4511;50.890;8.054;2023-04-24T07:01:16;7.93;;;6.67;;
8952;SDS011;4511;50.890;8.054;2023-04-24T07:03:42;7.17;;;6.40;;
8952;SDS011;4511;50.890;8.054;2023-04-24T07:06:11;7.17;;;6.47;;
8952;SDS011;4511;50.890;8.054;2023-04-24T07:08:37;7.10;;;6.27;;
8952;SDS011;4511;50.890;8.054;2023-04-24T07:11:06;6.67;;;5.67;;
8952;SDS011;4511;50.890;8.054;2023-04-24T07:13:33;7.87;;;6.03;;
8952;SDS011;4511;50.890;8.054;2023-04-24T07:16:00;8.40;;;6.60;;
8952;SDS011;4511;50.890;8.054;2023-04-24T07:18:27;7.10;;;6.50;;
8952;SDS011;4511;50.890;8.054;2023-04-24T07:20:54;7.13;;;6.47;;
8952;SDS011;4511;50.890;8.054;2023-04-24T07:23:22;7.70;;;6.53;;
8952;SDS011;4511;50.890;8.054;2023-04-24T07:25:49;7.60;;;6.90;;
8952;SDS011;4511;50.890;8.054;2023-04-24T07:28:16;6.67;;;6.07;;
8952;SDS011;4511;50.890;8.054;2023-04-24T07:30:43;7.67;;;6.97;;
8952;SDS011;4511;50.890;8.054;2023-04-24T07:33:10;7.30;;;6.70;;
8952;SDS011;4511;50.890;8.054;2023-04-24T07:35:38;7.70;;;7.00;;
8952;SDS011;4511;50.890;8.054;2023-04-24T07:38:04;7.87;;;6.93;;
8952;SDS011;4511;50.890;8.054;2023-04-24T07:40:33;7.23;;;6.60;;
8952;SDS011;4511;50.890;8.054;2023-04-24T07:42:59;7.27;;;6.57;;
8952;SDS011;4511;50.890;8.054;2023-04-24T07:45:26;7.37;;;6.13;;
8952;SDS011;4511;50.890;8.054;2023-04-24T07:47:53;7.23;;;6.53;;
8952;SDS011;4511;50.890;8.054;2023-04-24T07:50:20;8.03;;;6.80;;
8952;SDS011;4511;50.890;8.054;2023-04-24T07:52:47;7.77;;;7.07;;
8952;SDS011;4511;50.890;8.054;2023-04-24T07:55:14;7.00;;;6.40;;
8952;SDS011;4511;50.890;8.054;2023-04-24T07:57:42;7.50;;;6.70;;
8952;SDS011;4511;50.890;8.054;2023-04-24T08:00:09;7.43;;;6.70;;
8952;SDS011;4511;50.890;8.054;2023-04-24T08:02:37;8.40;;;7.60;;
8952;SDS011;4511;50.890;8.054;2023-04-24T08:05:04;7.20;;;6.50;;
8952;SDS011;4511;50.890;8.054;2023-04-24T08:07:31;7.93;;;6.80;;
8952;SDS011;4511;50.890;8.054;2023-04-24T08:09:58;7.90;;;6.90;;
8952;SDS011;4511;50.890;8.054;2023-04-24T08:12:25;7.37;;;6.77;;
8952;SDS011;4511;50.890;8.054;2023-04-24T08:14:53;7.50;;;6.80;;
8952;SDS011;4511;50.890;8.054;2023-04-24T08:17:20;7.40;;;6.70;;
8952;SDS011;4511;50.890;8.054;2023-04-24T08:19:47;8.43;;;7.63;;
8952;SDS011;4511;50.890;8.054;2023-04-24T08:22:14;10.03;;;7.07;;
8952;SDS011;4511;50.890;8.054;2023-04-24T08:24:41;8.33;;;7.53;;
8952;SDS011;4511;50.890;8.054;2023-04-24T08:27:08;7.20;;;6.50;;
8952;SDS011;4511;50.890;8.054;2023-04-24T08:29:35;7.17;;;6.47;;
8952;SDS011;4511;50.890;8.054;2023-04-24T08:32:03;7.40;;;6.70;;
8952;SDS011;4511;50.890;8.054;2023-04-24T08:34:30;7.40;;;6.63;;
8952;SDS011;4511;50.890;8.054;2023-04-24T08:36:57;8.27;;;7.47;;
8952;SDS011;4511;50.890;8.054;2023-04-24T08:39:24;7.17;;;6.47;;
8952;SDS011;4511;50.890;8.054;2023-04-24T08:41:50;8.53;;;7.67;;
8952;SDS011;4511;50.890;8.054;2023-04-24T08:44:19;8.33;;;7.50;;
8952;SDS011;4511;50.890;8.054;2023-04-24T08:46:47;8.53;;;7.73;;
8952;SDS011;4511;50.890;8.054;2023-04-24T08:49:17;8.37;;;7.67;;
8952;SDS011;4511;50.890;8.054;2023-04-24T08:51:45;7.63;;;6.53;;
8952;SDS011;4511;50.890;8.054;2023-04-24T08:54:13;8.13;;;7.33;;
8952;SDS011;4511;50.890;8.054;2023-04-24T08:56:40;9.47;;;7.77;;
8952;SDS011;4511;50.890;8.054;2023-04-24T08:59:10;8.13;;;7.10;;
8952;SDS011;4511;50.890;8.054;2023-04-24T09:01:38;8.27;;;6.33;;
8952;SDS011;4511;50.890;8.054;2023-04-24T09:04:07;7.00;;;6.30;;
8952;SDS011;4511;50.890;8.054;2023-04-24T09:06:37;7.37;;;6.13;;
8952;SDS011;4511;50.890;8.054;2023-04-24T09:09:03;5.73;;;5.23;;
8952;SDS011;4511;50.890;8.054;2023-04-24T09:11:31;5.20;;;4.80;;
8952;SDS011;4511;50.890;8.054;2023-04-24T09:13:58;4.20;;;3.90;;
8952;SDS011;4511;50.890;8.054;2023-04-24T09:16:26;4.10;;;3.70;;
8952;SDS011;4511;50.890;8.054;2023-04-24T09:18:54;4.13;;;3.83;;
8952;SDS011;4511;50.890;8.054;2023-04-24T09:21:21;3.93;;;3.70;;
8952;SDS011;4511;50.890;8.054;2023-04-24T09:23:58;5.10;;;3.30;;
8952;SDS011;4511;50.890;8.054;2023-04-24T09:26:28;3.07;;;2.60;;
8952;SDS011;4511;50.890;8.054;2023-04-24T09:28:58;2.50;;;2.40;;
8952;SDS011;4511;50.890;8.054;2023-04-24T09:31:26;2.80;;;2.60;;
8952;SDS011;4511;50.890;8.054;2023-04-24T09:33:54;3.03;;;2.20;;
8952;SDS011;4511;50.890;8.054;2023-04-24T09:36:29;2.60;;;2.50;;
8952;SDS011;4511;50.890;8.054;2023-04-24T09:38:59;2.50;;;2.30;;
8952;SDS011;4511;50.890;8.054;2023-04-24T09:41:27;2.53;;;2.43;;
8952;SDS011;4511;50.890;8.054;2023-04-24T09:43:54;2.50;;;2.40;;
8952;SDS011;4511;50.890;8.054;2023-04-24T09:46:28;2.77;;;2.67;;
8952;SDS011;4511;50.890;8.054;2023-04-24T09:48:56;2.20;;;2.10;;
8952;SDS011;4511;50.890;8.054;2023-04-24T09:51:32;2.53;;;2.23;;
8952;SDS011;4511;50.890;8.054;2023-04-24T09:54:04;3.43;;;3.33;;
8952;SDS011;4511;50.890;8.054;2023-04-24T09:56:39;2.40;;;2.30;;
8952;SDS011;4511;50.890;8.054;2023-04-24T09:59:09;2.30;;;2.20;;
8952;SDS011;4511;50.890;8.054;2023-04-24T10:01:35;3.27;;;3.17;;
8952;SDS011;4511;50.890;8.054;2023-04-24T10:04:03;2.20;;;2.10;;
8952;SDS011;4511;50.890;8.054;2023-04-24T10:06:32;2.93;;;2.73;;
8952;SDS011;4511;50.890;8.054;2023-04-24T10:09:00;2.47;;;2.30;;
8952;SDS011;4511;50.890;8.054;2023-04-24T10:11:28;2.53;;;2.30;;
8952;SDS011;4511;50.890;8.054;2023-04-24T10:13:55;2.60;;;2.50;;
8952;SDS011;4511;50.890;8.054;2023-04-24T10:16:22;2.40;;;2.30;;
8952;SDS011;4511;50.890;8.054;2023-04-24T10:18:52;2.50;;;2.40;;
8952;SDS011;4511;50.890;8.054;2023-04-24T10:21:19;3.10;;;2.40;;
8952;SDS011;4511;50.890;8.054;2023-04-24T10:23:46;2.60;;;2.50;;
8952;SDS011;4511;50.890;8.054;2023-04-24T10:26:15;2.70;;;2.60;;
8952;SDS011;4511;50.890;8.054;2023-04-24T10:28:45;5.67;;;5.23;;
8952;SDS011;4511;50.890;8.054;2023-04-24T10:31:12;2.83;;;2.73;;
8952;SDS011;4511;50.890;8.054;2023-04-24T10:33:40;2.40;;;2.30;;
8952;SDS011;4511;50.890;8.054;2023-04-24T10:36:08;2.70;;;2.60;;
8952;SDS011;4511;50.890;8.054;2023-04-24T10:38:36;5.17;;;2.60;;
8952;SDS011;4511;50.890;8.054;2023-04-24T10:41:07;3.10;;;2.80;;
8952;SDS011;4511;50.890;8.054;2023-04-24T10:43:35;3.57;;;3.27;;
8952;SDS011;4511;50.890;8.054;2023-04-24T10:46:04;3.10;;;2.90;;
8952;SDS011;4511;50.890;8.054;2023-04-24T10:48:32;3.60;;;3.40;;
8952;SDS011;4511;50.890;8.054;2023-04-24T10:50:59;3.00;;;2.80;;
8952;SDS011;4511;50.890;8.054;2023-04-24T10:53:27;3.23;;;3.03;;
8952;SDS011;4511;50.890;8.054;2023-04-24T10:55:57;3.03;;;2.90;;
8952;SDS011;4511;50.890;8.054;2023-04-24T10:58:36;5.43;;;5.00;;
8952;SDS011;4511;50.890;8.054;2023-04-24T11:01:06;3.30;;;3.10;;
8952;SDS011;4511;50.890;8.054;2023-04-24T11:03:33;3.20;;;3.00;;
8952;SDS011;4511;50.890;8.054;2023-04-24T11:06:01;3.13;;;2.93;;
8952;SDS011;4511;50.890;8.054;2023-04-24T11:08:30;3.90;;;3.50;;
8952;SDS011;4511;50.890;8.054;2023-04-24T11:11:00;3.20;;;3.00;;
8952;SDS011;4511;50.890;8.054;2023-04-24T11:16:29;3.80;;;3.50;;
8952;SDS011;4511;50.890;8.054;2023-04-24T11:19:01;3.83;;;3.40;;
8952;SDS011;4511;50.890;8.054;2023-04-24T11:21:33;4.00;;;3.80;;
8952;SDS011;4511;50.890;8.054;2023-04-24T11:24:22;4.20;;;3.90;;
8952;SDS011;4511;50.890;8.054;2023-04-24T11:26:51;4.13;;;3.83;;
8952;SDS011;4511;50.890;8.054;2023-04-24T11:29:18;4.90;;;4.50;;
8952;SDS011;4511;50.890;8.054;2023-04-24T11:31:47;4.73;;;4.33;;
8952;SDS011;4511;50.890;8.054;2023-04-24T11:34:16;4.73;;;4.43;;
8952;SDS011;4511;50.890;8.054;2023-04-24T11:36:44;4.73;;;4.40;;
8952;SDS011;4511;50.890;8.054;2023-04-24T11:39:11;5.50;;;5.00;;
8952;SDS011;4511;50.890;8.054;2023-04-24T11:41:38;5.37;;;4.97;;
8952;SDS011;4511;50.890;8.054;2023-04-24T11:44:06;5.80;;;5.20;;
8952;SDS011;4511;50.890;8.054;2023-04-24T11:46:33;5.43;;;4.93;;
8952;SDS011;4511;50.890;8.054;2023-04-24T11:49:04;5.83;;;5.33;;
8952;SDS011;4511;50.890;8.054;2023-04-24T11:51:31;6.30;;;5.70;;
8952;SDS011;4511;50.890;8.054;2023-04-24T11:53:58;5.80;;;5.20;;
8952;SDS011;4511;50.890;8.054;2023-04-24T11:56:25;6.60;;;5.90;;
8952;SDS011;4511;50.890;8.054;2023-04-24T11:58:52;5.50;;;5.00;;
8952;SDS011;4511;50.890;8.054;2023-04-24T12:01:20;8.80;;;5.80;;
8952;SDS011;4511;50.890;8.054;2023-04-24T12:03:47;6.97;;;5.63;;
8952;SDS011;4511;50.890;8.054;2023-04-24T12:06:17;6.70;;;6.03;;
8952;SDS011;4511;50.890;8.054;2023-04-24T12:08:47;7.57;;;6.80;;
8952;SDS011;4511;50.890;8.054;2023-04-24T12:11:15;7.03;;;6.10;;
8952;SDS011;4511;50.890;8.054;2023-04-24T12:13:44;8.07;;;7.10;;
8952;SDS011;4511;50.890;8.054;2023-04-24T12:16:11;7.67;;;5.80;;
8952;SDS011;4511;50.890;8.054;2023-04-24T12:18:42;8.00;;;6.40;;
8952;SDS011;4511;50.890;8.054;2023-04-24T12:21:21;6.93;;;6.07;;
8952;SDS011;4511;50.890;8.054;2023-04-24T12:23:53;7.13;;;5.50;;
8952;SDS011;4511;50.890;8.054;2023-04-24T12:26:20;7.57;;;5.53;;
8952;SDS011;4511;50.890;8.054;2023-04-24T12:28:48;6.53;;;5.07;;
8952;SDS011;4511;50.890;8.054;2023-04-24T12:31:16;5.03;;;4.60;;
8952;SDS011;4511;50.890;8.054;2023-04-24T12:33:43;5.07;;;4.50;;
8952;SDS011;4511;50.890;8.054;2023-04-24T12:36:10;6.20;;;4.73;;
8952;SDS011;4511;50.890;8.054;2023-04-24T12:38:43;6.47;;;3.90;;
8952;SDS011;4511;50.890;8.054;2023-04-24T12:41:11;4.87;;;3.83;;
8952;SDS011;4511;50.890;8.054;2023-04-24T12:43:50;5.30;;;4.03;;
8952;SDS011;4511;50.890;8.054;2023-04-24T12:46:18;4.33;;;3.90;;
8952;SDS011;4511;50.890;8.054;2023-04-24T12:48:45;5.47;;;4.37;;
8952;SDS011;4511;50.890;8.054;2023-04-24T12:51:11;7.10;;;4.40;;
8952;SDS011;4511;50.890;8.054;2023-04-24T12:53:38;4.60;;;4.20;;
8952;SDS011;4511;50.890;8.054;2023-04-24T12:56:06;5.60;;;3.97;;
8952;SDS011;4511;50.890;8.054;2023-04-24T12:58:33;5.77;;;4.27;;
8952;SDS011;4511;50.890;8.054;2023-04-24T13:01:00;5.97;;;4.50;;
8952;SDS011;4511;50.890;8.054;2023-04-24T13:03:27;9.00;;;4.90;;
8952;SDS011;4511;50.890;8.054;2023-04-24T13:05:54;7.57;;;4.77;;
8952;SDS011;4511;50.890;8.054;2023-04-24T13:08:21;7.33;;;4.83;;
8952;SDS011;4511;50.890;8.054;2023-04-24T13:10:48;8.63;;;5.20;;
8952;SDS011;4511;50.890;8.054;2023-04-24T13:13:17;12.20;;;5.20;;
8952;SDS011;4511;50.890;8.054;2023-04-24T13:15:44;6.33;;;4.83;;
8952;SDS011;4511;50.890;8.054;2023-04-24T13:18:11;7.63;;;5.33;;
8952;SDS011;4511;50.890;8.054;2023-04-24T13:20:37;12.30;;;5.77;;
8952;SDS011;4511;50.890;8.054;2023-04-24T13:23:06;9.20;;;5.70;;
8952;SDS011;4511;50.890;8.054;2023-04-24T13:25:34;9.50;;;5.67;;
8952;SDS011;4511;50.890;8.054;2023-04-24T13:28:02;10.70;;;5.57;;
8952;SDS011;4511;50.890;8.054;2023-04-24T13:30:30;6.97;;;5.13;;
8952;SDS011;4511;50.890;8.054;2023-04-24T13:32:57;8.43;;;6.10;;
8952;SDS011;4511;50.890;8.054;2023-04-24T13:35:24;7.80;;;5.90;;
8952;SDS011;4511;50.890;8.054;2023-04-24T13:37:50;7.40;;;5.60;;
8952;SDS011;4511;50.890;8.054;2023-04-24T13:40:17;5.93;;;5.20;;
8952;SDS011;4511;50.890;8.054;2023-04-24T13:42:44;8.67;;;6.27;;
8952;SDS011;4511;50.890;8.054;2023-04-24T13:45:11;7.70;;;5.37;;
8952;SDS011;4511;50.890;8.054;2023-04-24T13:47:40;9.00;;;5.87;;
8952;SDS011;4511;50.890;8.054;2023-04-24T13:50:09;6.67;;;5.97;;
8952;SDS011;4511;50.890;8.054;2023-04-24T13:52:36;9.03;;;6.30;;
8952;SDS011;4511;50.890;8.054;2023-04-24T13:55:03;9.93;;;8.93;;
8952;SDS011;4511;50.890;8.054;2023-04-24T13:57:30;9.47;;;6.83;;
8952;SDS011;4511;50.890;8.054;2023-04-24T13:59:57;11.33;;;7.00;;
8952;SDS011;4511;50.890;8.054;2023-04-24T14:02:26;9.73;;;7.17;;
8952;SDS011;4511;50.890;8.054;2023-04-24T14:04:54;8.90;;;6.60;;
8952;SDS011;4511;50.890;8.054;2023-04-24T14:07:21;7.57;;;6.77;;
8952;SDS011;4511;50.890;8.054;2023-04-24T14:09:47;8.57;;;7.00;;
8952;SDS011;4511;50.890;8.054;2023-04-24T14:12:14;5.33;;;4.87;;
8952;SDS011;4511;50.890;8.054;2023-04-24T14:14:44;7.67;;;6.23;;
8952;SDS011;4511;50.890;8.054;2023-04-24T14:17:12;6.63;;;6.00;;
8952;SDS011;4511;50.890;8.054;2023-04-24T14:19:38;7.53;;;5.97;;
8952;SDS011;4511;50.890;8.054;2023-04-24T14:22:06;5.77;;;5.10;;
8952;SDS011;4511;50.890;8.054;2023-04-24T14:24:33;6.97;;;6.03;;
8952;SDS011;4511;50.890;8.054;2023-04-24T14:27:00;6.93;;;5.80;;
8952;SDS011;4511;50.890;8.054;2023-04-24T14:29:26;7.07;;;5.50;;
8952;SDS011;4511;50.890;8.054;2023-04-24T14:31:53;8.57;;;6.80;;
8952;SDS011;4511;50.890;8.054;2023-04-24T14:34:20;11.60;;;7.53;;
8952;SDS011;4511;50.890;8.054;2023-04-24T14:36:47;7.87;;;6.90;;
8952;SDS011;4511;50.890;8.054;2023-04-24T14:39:15;8.53;;;7.63;;
8952;SDS011;4511;50.890;8.054;2023-04-24T14:41:41;9.17;;;7.47;;
8952;SDS011;4511;50.890;8.054;2023-04-24T14:44:08;12.03;;;7.80;;
8952;SDS011;4511;50.890;8.054;2023-04-24T14:46:35;8.53;;;7.50;;
8952;SDS011;4511;50.890;8.054;2023-04-24T14:49:02;9.07;;;7.93;;
8952;SDS011;4511;50.890;8.054;2023-04-24T14:51:29;12.07;;;7.90;;
8952;SDS011;4511;50.890;8.054;2023-04-24T14:53:56;9.40;;;8.40;;
8952;SDS011;4511;50.890;8.054;2023-04-24T14:56:24;11.70;;;8.20;;
8952;SDS011;4511;50.890;8.054;2023-04-24T14:58:51;10.97;;;7.80;;
8952;SDS011;4511;50.890;8.054;2023-04-24T15:01:18;9.33;;;7.87;;
8952;SDS011;4511;50.890;8.054;2023-04-24T15:03:45;13.40;;;7.67;;
8952;SDS011;4511;50.890;8.054;2023-04-24T15:06:11;9.30;;;7.80;;
8952;SDS011;4511;50.890;8.054;2023-04-24T15:08:38;10.83;;;7.63;;
8952;SDS011;4511;50.890;8.054;2023-04-24T15:11:05;10.77;;;7.10;;
8952;SDS011;4511;50.890;8.054;2023-04-24T15:13:33;10.70;;;7.67;;
8952;SDS011;4511;50.890;8.054;2023-04-24T15:16:00;9.93;;;7.80;;
8952;SDS011;4511;50.890;8.054;2023-04-24T15:18:27;9.37;;;7.40;;
8952;SDS011;4511;50.890;8.054;2023-04-24T15:20:54;12.17;;;8.63;;